createdAt,value
2023-09-21T00:02:24.979Z,21.33
2023-09-21T00:07:28.247Z,21.37
2023-09-21T00:12:32.960Z,21.18
2023-09-21T00:17:35.976Z,20.99
2023-09-21T00:22:38.807Z,21.02
2023-09-21T00:27:42.981Z,21.42
2023-09-21T00:32:45.837Z,21.14
2023-09-21T00:37:48.739Z,21.47
2023-09-21T00:42:53.856Z,21.23
2023-09-21T00:47:57.321Z,21.03
2023-09-21T00:53:00.466Z,21.09
2023-09-21T00:58:06.471Z,21.37
2023-09-21T01:03:13.308Z,21.18
2023-09-21T01:08:21.277Z,21.36
2023-09-21T01:13:27.025Z,21.21
2023-09-21T01:18:30.026Z,21.02
2023-09-21T01:23:37.924Z,21.32
2023-09-21T01:28:41.710Z,21.13
2023-09-21T01:33:44.788Z,21.01
2023-09-21T01:38:50.127Z,21.26
2023-09-21T01:43:52.949Z,20.87
2023-09-21T01:48:56.077Z,20.67
2023-09-21T01:54:00.493Z,20.83
2023-09-21T01:59:04.881Z,20.65
2023-09-21T02:04:09.000Z,20.51
2023-09-21T02:09:16.151Z,20.48
2023-09-21T02:14:19.027Z,20.35
2023-09-21T02:19:21.827Z,20.59
2023-09-21T02:24:26.827Z,20.54
2023-09-21T02:29:29.623Z,20.68
2023-09-21T02:34:33.114Z,20.37
2023-09-21T02:39:37.293Z,20.34
2023-09-21T02:44:40.584Z,20.39
2023-09-21T02:49:43.632Z,20.42
2023-09-21T02:54:48.172Z,20.44
2023-09-21T02:59:51.931Z,20.10
2023-09-21T03:04:56.349Z,20.63
2023-09-21T03:10:06.082Z,20.31
2023-09-21T03:15:14.769Z,20.27
2023-09-21T03:20:29.596Z,20.38
2023-09-21T03:25:34.800Z,20.11
2023-09-21T03:30:37.645Z,20.15
2023-09-21T03:35:41.112Z,20.37
2023-09-21T03:40:45.787Z,20.54
2023-09-21T03:45:49.085Z,20.57
2023-09-21T03:50:53.576Z,20.14
2023-09-21T03:55:58.378Z,20.20
2023-09-21T04:01:05.441Z,20.16
2023-09-21T04:06:08.648Z,19.96
2023-09-21T04:11:13.180Z,19.83
2023-09-21T04:16:16.852Z,20.01
2023-09-21T04:21:21.163Z,19.82
2023-09-21T04:26:26.015Z,19.96
2023-09-21T04:31:29.059Z,20.08
2023-09-21T04:36:32.116Z,20.31
2023-09-21T04:41:36.635Z,20.36
2023-09-21T04:46:39.770Z,20.57
2023-09-21T04:51:42.712Z,20.31
2023-09-21T04:56:47.050Z,20.51
2023-09-21T05:01:50.075Z,20.41
2023-09-21T05:06:52.933Z,20.07
2023-09-21T05:11:57.763Z,20.36
2023-09-21T05:17:01.603Z,20.23
2023-09-21T05:22:05.628Z,20.25
2023-09-21T05:27:10.413Z,20.21
2023-09-21T05:32:13.232Z,20.23
2023-09-21T05:37:16.407Z,20.16
2023-09-21T05:42:20.599Z,20.11
2023-09-21T05:47:28.665Z,20.33
2023-09-21T05:52:33.316Z,20.64
2023-09-21T05:57:37.642Z,21.18
2023-09-21T06:02:40.517Z,22.02
2023-09-21T06:07:43.387Z,21.76
2023-09-21T06:12:47.511Z,22.17
2023-09-21T06:17:50.511Z,22.58
2023-09-21T06:22:53.739Z,22.52
2023-09-21T06:27:57.885Z,21.87
2023-09-21T06:33:01.693Z,21.66
2023-09-21T06:38:05.774Z,22.05
2023-09-21T06:43:09.926Z,22.10
2023-09-21T06:48:13.104Z,23.13
2023-09-21T06:53:17.822Z,23.54
2023-09-21T06:58:21.976Z,23.72
2023-09-21T07:03:24.952Z,26.52
2023-09-21T07:08:27.796Z,29.16
2023-09-21T07:13:31.929Z,30.95
2023-09-21T07:18:34.978Z,30.02
2023-09-21T07:23:37.977Z,29.94
2023-09-21T07:28:42.422Z,29.53
2023-09-21T07:33:45.641Z,28.75
2023-09-21T07:38:48.469Z,27.10
2023-09-21T07:43:52.618Z,25.88
2023-09-21T07:48:55.439Z,24.65
2023-09-21T07:53:58.588Z,24.48
2023-09-21T07:59:02.841Z,24.49
2023-09-21T08:04:06.270Z,24.38
2023-09-21T08:09:15.858Z,24.71
2023-09-21T08:14:35.827Z,24.48
2023-09-21T08:19:39.350Z,24.66
2023-09-21T08:24:43.264Z,24.67
2023-09-21T08:29:48.939Z,24.79
2023-09-21T08:34:51.892Z,24.73
2023-09-21T08:39:54.856Z,25.30
2023-09-21T08:44:59.500Z,25.69
2023-09-21T08:50:04.818Z,26.23
2023-09-21T08:55:11.947Z,26.25
2023-09-21T09:00:18.353Z,25.88
2023-09-21T09:05:21.584Z,25.83
2023-09-21T09:10:24.992Z,25.92
2023-09-21T09:15:38.553Z,26.45
2023-09-21T09:20:43.509Z,26.68
2023-09-21T09:25:46.724Z,26.30
2023-09-21T09:30:53.302Z,25.93
2023-09-21T09:35:56.200Z,26.38
2023-09-21T09:41:04.180Z,26.49
2023-09-21T09:46:13.275Z,26.51
2023-09-21T09:51:22.522Z,26.79
2023-09-21T09:56:27.740Z,26.66
2023-09-21T10:01:34.956Z,27.00
2023-09-21T10:06:38.718Z,27.05
2023-09-21T10:11:43.804Z,27.14
2023-09-21T10:16:56.353Z,26.69
2023-09-21T10:22:01.073Z,27.06
2023-09-21T10:27:05.351Z,27.50
2023-09-21T10:32:09.539Z,27.43
2023-09-21T10:37:16.596Z,28.00
2023-09-21T10:42:35.725Z,28.96
2023-09-21T10:47:49.090Z,28.74
2023-09-21T10:52:56.608Z,28.81
2023-09-21T10:58:01.807Z,28.51
2023-09-21T11:03:06.479Z,28.56
2023-09-21T11:08:09.442Z,28.24
2023-09-21T11:13:12.235Z,28.12
2023-09-21T11:18:16.632Z,27.29
2023-09-21T11:23:20.538Z,27.81
2023-09-21T11:28:23.894Z,28.86
2023-09-21T11:33:31.474Z,28.55
2023-09-21T11:38:35.422Z,28.81
2023-09-21T11:43:38.428Z,28.51
2023-09-21T11:48:45.005Z,28.87
2023-09-21T11:53:50.003Z,28.87
2023-09-21T11:58:56.619Z,28.29
2023-09-21T12:04:00.941Z,29.11
2023-09-21T12:09:08.889Z,29.05
2023-09-21T12:14:13.331Z,28.48
2023-09-21T12:19:17.534Z,28.44
2023-09-21T12:24:22.694Z,28.57
2023-09-21T12:29:26.169Z,28.52
2023-09-21T12:34:32.950Z,29.18
2023-09-21T12:39:36.278Z,29.20
2023-09-21T12:44:39.510Z,29.07
2023-09-21T12:49:45.760Z,29.35
2023-09-21T12:54:48.592Z,28.52
2023-09-21T12:59:51.427Z,28.67
2023-09-21T13:04:56.822Z,29.39
2023-09-21T13:10:01.394Z,28.79
2023-09-21T13:15:05.105Z,28.84
2023-09-21T13:20:17.961Z,28.46
2023-09-21T13:25:21.799Z,28.33
2023-09-21T13:30:24.649Z,28.42
2023-09-21T13:35:29.462Z,28.21
2023-09-21T13:40:32.322Z,28.00
2023-09-21T13:45:35.915Z,27.99
2023-09-21T13:50:40.903Z,27.81
2023-09-21T13:55:43.795Z,27.74
2023-09-21T14:00:50.115Z,27.12
2023-09-21T14:05:54.739Z,27.06
2023-09-21T14:11:00.280Z,27.13
2023-09-21T14:16:03.824Z,27.38
2023-09-21T14:21:08.741Z,27.38
2023-09-21T14:26:11.685Z,26.61
2023-09-21T14:31:14.711Z,26.95
2023-09-21T14:36:19.106Z,27.23
2023-09-21T14:41:41.924Z,27.22
2023-09-21T14:46:45.413Z,26.76
2023-09-21T14:51:49.842Z,26.75
2023-09-21T14:56:52.718Z,26.95
2023-09-21T15:01:56.374Z,26.20
2023-09-21T15:07:00.623Z,26.56
2023-09-21T15:12:04.510Z,26.24
2023-09-21T15:17:08.406Z,26.42
2023-09-21T15:22:13.149Z,26.46
2023-09-21T15:27:18.508Z,26.01
2023-09-21T15:32:21.422Z,26.25
2023-09-21T15:37:27.893Z,26.40
2023-09-21T15:42:31.095Z,26.07
2023-09-21T15:47:36.252Z,25.62
2023-09-21T15:52:40.848Z,25.68
2023-09-21T15:57:48.905Z,26.09
2023-09-21T16:02:51.824Z,26.15
2023-09-21T16:07:56.169Z,25.60
2023-09-21T16:13:00.540Z,25.81
2023-09-21T16:18:04.295Z,25.40
2023-09-21T16:23:08.607Z,25.38
2023-09-21T16:28:21.992Z,25.61
2023-09-21T16:33:28.052Z,25.20
2023-09-21T16:38:32.877Z,24.96
2023-09-21T16:43:35.738Z,24.92
2023-09-21T16:48:38.790Z,24.69
2023-09-21T16:53:43.351Z,24.58
2023-09-21T16:58:50.940Z,24.35
2023-09-21T17:03:53.915Z,24.56
2023-09-21T17:09:01.337Z,24.42
2023-09-21T17:14:04.156Z,24.59
2023-09-21T17:19:07.887Z,24.39
2023-09-21T17:24:12.354Z,24.20
2023-09-21T17:29:15.772Z,24.35
2023-09-21T17:34:19.121Z,24.30
2023-09-21T17:39:23.589Z,24.12
2023-09-21T17:44:26.854Z,24.39
2023-09-21T17:49:29.853Z,23.66
2023-09-21T17:54:34.486Z,23.55
2023-09-21T17:59:37.781Z,23.62
2023-09-21T18:04:43.810Z,23.75
2023-09-21T18:09:49.016Z,23.43
2023-09-21T18:14:51.925Z,23.53
2023-09-21T18:19:55.865Z,23.59
2023-09-21T18:25:07.258Z,23.53
2023-09-21T18:30:10.773Z,23.38
2023-09-21T18:35:15.726Z,23.47
2023-09-21T18:40:19.940Z,23.24
2023-09-21T18:45:22.849Z,23.57
2023-09-21T18:50:25.835Z,23.17
2023-09-21T18:55:30.213Z,23.33
2023-09-21T19:00:34.370Z,23.20
2023-09-21T19:05:37.870Z,22.96
2023-09-21T19:10:42.345Z,23.34
2023-09-21T19:15:46.439Z,23.31
2023-09-21T19:20:49.381Z,23.37
2023-09-21T19:25:53.832Z,23.24
2023-09-21T19:30:57.329Z,23.37
2023-09-21T19:36:01.316Z,23.50
2023-09-21T19:41:06.808Z,23.31
2023-09-21T19:46:09.765Z,23.18
2023-09-21T19:51:13.265Z,23.28
2023-09-21T19:56:17.675Z,23.24
2023-09-21T20:01:20.623Z,22.58
2023-09-21T20:06:23.676Z,22.92
2023-09-21T20:11:28.203Z,22.55
2023-09-21T20:16:31.158Z,22.50
2023-09-21T20:21:34.138Z,22.67
2023-09-21T20:26:38.330Z,22.62
2023-09-21T20:31:41.522Z,22.62
2023-09-21T20:36:44.635Z,22.86
2023-09-21T20:41:49.051Z,22.64
2023-09-21T20:46:52.284Z,22.66
2023-09-21T20:51:55.224Z,22.63
2023-09-21T20:57:00.231Z,22.58
2023-09-21T21:02:03.652Z,22.73
2023-09-21T21:07:06.422Z,22.28
2023-09-21T21:12:10.612Z,22.48
2023-09-21T21:17:13.616Z,22.38
2023-09-21T21:22:16.433Z,22.63
2023-09-21T21:27:21.221Z,22.49
2023-09-21T21:32:24.390Z,22.68
2023-09-21T21:37:27.299Z,22.54
2023-09-21T21:42:31.526Z,22.47
2023-09-21T21:47:34.539Z,22.32
2023-09-21T21:52:37.378Z,22.36
2023-09-21T21:57:41.865Z,22.12
2023-09-21T22:02:44.792Z,21.77
2023-09-21T22:07:47.642Z,21.75
2023-09-21T22:12:52.128Z,22.04
2023-09-21T22:17:54.994Z,22.36
2023-09-21T22:22:57.774Z,21.36
2023-09-21T22:28:02.000Z,21.40
2023-09-21T22:33:05.446Z,21.29
2023-09-21T22:38:14.778Z,21.37
2023-09-21T22:43:19.653Z,21.89
2023-09-21T22:48:22.500Z,22.20
2023-09-21T22:53:26.587Z,22.26
2023-09-21T22:58:31.685Z,21.83
2023-09-21T23:03:35.093Z,22.09
2023-09-21T23:08:38.095Z,22.08
2023-09-21T23:13:43.848Z,21.60
2023-09-21T23:18:46.910Z,21.49
2023-09-21T23:23:49.812Z,21.74
2023-09-21T23:28:53.982Z,21.52
2023-09-21T23:33:57.007Z,21.70
2023-09-21T23:39:00.531Z,21.81
2023-09-21T23:44:05.352Z,21.42
2023-09-21T23:49:08.201Z,21.33
2023-09-21T23:54:10.989Z,21.37
2023-09-21T23:59:15.435Z,21.46
